sensor_id;sensor_type;location;lat;lon;timestamp;P1;durP1;ratioP1;P2;durP2;ratioP2
15342;SDS011;7771;48.478;8.936;2023-05-10T00:01:23;2.37;;;0.70;;
15342;SDS011;7771;48.478;8.936;2023-05-10T00:03:50;1.80;;;0.70;;
15342;SDS011;7771;48.478;8.936;2023-05-10T00:06:17;0.83;;;0.67;;
15342;SDS011;7771;48.478;8.936;2023-05-10T00:08:44;1.13;;;0.67;;
15342;SDS011;7771;48.478;8.936;2023-05-10T00:11:10;1.00;;;0.50;;
15342;SDS011;7771;48.478;8.936;2023-05-10T00:13:38;1.43;;;0.50;;
15342;SDS011;7771;48.478;8.936;2023-05-10T00:16:04;0.60;;;0.50;;
15342;SDS011;7771;48.478;8.936;2023-05-10T00:18:32;1.47;;;0.40;;
15342;SDS011;7771;48.478;8.936;2023-05-10T00:20:58;0.90;;;0.40;;
15342;SDS011;7771;48.478;8.936;2023-05-10T00:23:26;0.47;;;0.47;;
15342;SDS011;7771;48.478;8.936;2023-05-10T00:25:53;1.23;;;0.73;;
15342;SDS011;7771;48.478;8.936;2023-05-10T00:28:20;1.33;;;0.60;;
15342;SDS011;7771;48.478;8.936;2023-05-10T00:30:47;0.50;;;0.50;;
15342;SDS011;7771;48.478;8.936;2023-05-10T00:33:15;0.83;;;0.43;;
15342;SDS011;7771;48.478;8.936;2023-05-10T00:35:41;0.33;;;0.33;;
15342;SDS011;7771;48.478;8.936;2023-05-10T00:38:09;1.40;;;0.40;;
15342;SDS011;7771;48.478;8.936;2023-05-10T00:40:37;0.30;;;0.30;;
15342;SDS011;7771;48.478;8.936;2023-05-10T00:43:03;0.30;;;0.30;;
15342;SDS011;7771;48.478;8.936;2023-05-10T00:45:32;0.20;;;0.20;;
15342;SDS011;7771;48.478;8.936;2023-05-10T00:47:59;0.20;;;0.20;;
15342;SDS011;7771;48.478;8.936;2023-05-10T00:50:25;0.30;;;0.30;;
15342;SDS011;7771;48.478;8.936;2023-05-10T00:52:53;0.30;;;0.23;;
15342;SDS011;7771;48.478;8.936;2023-05-10T00:55:20;0.33;;;0.33;;
15342;SDS011;7771;48.478;8.936;2023-05-10T00:57:48;2.63;;;0.50;;
15342;SDS011;7771;48.478;8.936;2023-05-10T01:00:14;0.80;;;0.50;;
15342;SDS011;7771;48.478;8.936;2023-05-10T01:02:42;0.40;;;0.40;;
15342;SDS011;7771;48.478;8.936;2023-05-10T01:05:10;1.30;;;0.50;;
15342;SDS011;7771;48.478;8.936;2023-05-10T01:07:38;0.40;;;0.40;;
15342;SDS011;7771;48.478;8.936;2023-05-10T01:10:05;0.30;;;0.30;;
15342;SDS011;7771;48.478;8.936;2023-05-10T01:12:34;0.73;;;0.30;;
15342;SDS011;7771;48.478;8.936;2023-05-10T01:15:00;3.10;;;0.70;;
15342;SDS011;7771;48.478;8.936;2023-05-10T01:17:28;1.40;;;0.50;;
15342;SDS011;7771;48.478;8.936;2023-05-10T01:19:55;0.67;;;0.47;;
15342;SDS011;7771;48.478;8.936;2023-05-10T01:22:33;0.30;;;0.30;;
15342;SDS011;7771;48.478;8.936;2023-05-10T01:28:02;0.40;;;0.40;;
15342;SDS011;7771;48.478;8.936;2023-05-10T01:30:45;1.93;;;0.40;;
15342;SDS011;7771;48.478;8.936;2023-05-10T01:33:26;0.20;;;0.20;;
15342;SDS011;7771;48.478;8.936;2023-05-10T01:35:55;0.73;;;0.50;;
15342;SDS011;7771;48.478;8.936;2023-05-10T01:41:06;0.30;;;0.30;;
15342;SDS011;7771;48.478;8.936;2023-05-10T01:43:33;1.73;;;0.50;;
15342;SDS011;7771;48.478;8.936;2023-05-10T01:46:03;0.30;;;0.30;;
15342;SDS011;7771;48.478;8.936;2023-05-10T01:48:31;3.63;;;0.43;;
15342;SDS011;7771;48.478;8.936;2023-05-10T01:50:58;2.60;;;0.90;;
15342;SDS011;7771;48.478;8.936;2023-05-10T01:53:25;1.90;;;0.40;;
15342;SDS011;7771;48.478;8.936;2023-05-10T01:55:53;2.63;;;0.40;;
15342;SDS011;7771;48.478;8.936;2023-05-10T01:58:23;1.70;;;0.30;;
15342;SDS011;7771;48.478;8.936;2023-05-10T02:00:50;0.73;;;0.33;;
15342;SDS011;7771;48.478;8.936;2023-05-10T02:03:16;0.70;;;0.40;;
15342;SDS011;7771;48.478;8.936;2023-05-10T02:05:43;0.27;;;0.27;;
15342;SDS011;7771;48.478;8.936;2023-05-10T02:08:10;0.83;;;0.57;;
15342;SDS011;7771;48.478;8.936;2023-05-10T02:10:37;2.60;;;1.60;;
15342;SDS011;7771;48.478;8.936;2023-05-10T02:13:05;10.43;;;6.37;;
15342;SDS011;7771;48.478;8.936;2023-05-10T02:15:32;11.37;;;6.40;;
15342;SDS011;7771;48.478;8.936;2023-05-10T02:17:59;3.80;;;2.50;;
15342;SDS011;7771;48.478;8.936;2023-05-10T02:20:25;0.93;;;0.80;;
15342;SDS011;7771;48.478;8.936;2023-05-10T02:22:53;0.90;;;0.40;;
15342;SDS011;7771;48.478;8.936;2023-05-10T02:25:21;0.50;;;0.50;;
15342;SDS011;7771;48.478;8.936;2023-05-10T02:27:48;0.80;;;0.53;;
15342;SDS011;7771;48.478;8.936;2023-05-10T02:30:15;0.50;;;0.50;;
15342;SDS011;7771;48.478;8.936;2023-05-10T02:32:42;1.13;;;0.83;;
15342;SDS011;7771;48.478;8.936;2023-05-10T02:35:09;1.00;;;0.70;;
15342;SDS011;7771;48.478;8.936;2023-05-10T02:37:36;0.60;;;0.47;;
15342;SDS011;7771;48.478;8.936;2023-05-10T02:40:04;1.20;;;0.80;;
15342;SDS011;7771;48.478;8.936;2023-05-10T02:42:32;0.90;;;0.60;;
15342;SDS011;7771;48.478;8.936;2023-05-10T02:44:59;0.50;;;0.50;;
15342;SDS011;7771;48.478;8.936;2023-05-10T02:47:27;1.20;;;0.50;;
15342;SDS011;7771;48.478;8.936;2023-05-10T02:49:54;4.20;;;0.87;;
15342;SDS011;7771;48.478;8.936;2023-05-10T02:52:27;2.00;;;0.70;;
15342;SDS011;7771;48.478;8.936;2023-05-10T02:54:52;0.50;;;0.50;;
15342;SDS011;7771;48.478;8.936;2023-05-10T02:57:21;3.67;;;0.70;;
15342;SDS011;7771;48.478;8.936;2023-05-10T02:59:45;1.13;;;0.50;;
15342;SDS011;7771;48.478;8.936;2023-05-10T03:02:12;2.60;;;0.67;;
15342;SDS011;7771;48.478;8.936;2023-05-10T03:04:40;0.97;;;0.60;;
15342;SDS011;7771;48.478;8.936;2023-05-10T03:07:07;0.90;;;0.50;;
15342;SDS011;7771;48.478;8.936;2023-05-10T03:09:34;0.70;;;0.60;;
15342;SDS011;7771;48.478;8.936;2023-05-10T03:12:04;0.60;;;0.60;;
15342;SDS011;7771;48.478;8.936;2023-05-10T03:14:41;0.73;;;0.73;;
15342;SDS011;7771;48.478;8.936;2023-05-10T03:17:10;0.60;;;0.60;;
15342;SDS011;7771;48.478;8.936;2023-05-10T03:19:42;1.10;;;0.70;;
15342;SDS011;7771;48.478;8.936;2023-05-10T03:22:08;1.27;;;0.80;;
15342;SDS011;7771;48.478;8.936;2023-05-10T03:24:35;0.70;;;0.70;;
15342;SDS011;7771;48.478;8.936;2023-05-10T03:27:01;1.53;;;0.83;;
15342;SDS011;7771;48.478;8.936;2023-05-10T03:29:30;4.03;;;1.03;;
15342;SDS011;7771;48.478;8.936;2023-05-10T03:31:58;1.20;;;0.80;;
15342;SDS011;7771;48.478;8.936;2023-05-10T03:34:26;1.03;;;0.90;;
15342;SDS011;7771;48.478;8.936;2023-05-10T03:36:52;1.60;;;0.60;;
15342;SDS011;7771;48.478;8.936;2023-05-10T03:39:19;0.93;;;0.70;;
15342;SDS011;7771;48.478;8.936;2023-05-10T03:41:46;1.57;;;0.70;;
15342;SDS011;7771;48.478;8.936;2023-05-10T03:44:13;0.87;;;0.80;;
15342;SDS011;7771;48.478;8.936;2023-05-10T03:46:40;1.10;;;0.97;;
15342;SDS011;7771;48.478;8.936;2023-05-10T03:49:08;0.63;;;0.60;;
15342;SDS011;7771;48.478;8.936;2023-05-10T03:51:34;0.97;;;0.73;;
15342;SDS011;7771;48.478;8.936;2023-05-10T03:54:03;1.13;;;1.03;;
15342;SDS011;7771;48.478;8.936;2023-05-10T03:56:30;1.73;;;0.70;;
15342;SDS011;7771;48.478;8.936;2023-05-10T03:58:56;0.70;;;0.70;;
15342;SDS011;7771;48.478;8.936;2023-05-10T04:01:23;1.70;;;0.80;;
15342;SDS011;7771;48.478;8.936;2023-05-10T04:03:50;1.50;;;0.70;;
15342;SDS011;7771;48.478;8.936;2023-05-10T04:06:16;0.80;;;0.80;;
15342;SDS011;7771;48.478;8.936;2023-05-10T04:08:43;1.00;;;0.80;;
15342;SDS011;7771;48.478;8.936;2023-05-10T04:11:11;2.30;;;1.10;;
15342;SDS011;7771;48.478;8.936;2023-05-10T04:13:37;2.07;;;0.73;;
15342;SDS011;7771;48.478;8.936;2023-05-10T04:16:04;2.63;;;1.10;;
15342;SDS011;7771;48.478;8.936;2023-05-10T04:18:31;2.13;;;0.90;;
15342;SDS011;7771;48.478;8.936;2023-05-10T04:20:59;2.67;;;0.70;;
15342;SDS011;7771;48.478;8.936;2023-05-10T04:23:26;2.30;;;0.90;;
15342;SDS011;7771;48.478;8.936;2023-05-10T04:25:58;1.90;;;1.50;;
15342;SDS011;7771;48.478;8.936;2023-05-10T04:28:27;1.20;;;1.10;;
15342;SDS011;7771;48.478;8.936;2023-05-10T04:31:00;2.40;;;1.00;;
15342;SDS011;7771;48.478;8.936;2023-05-10T04:33:28;1.40;;;1.30;;
15342;SDS011;7771;48.478;8.936;2023-05-10T04:35:55;1.67;;;0.90;;
15342;SDS011;7771;48.478;8.936;2023-05-10T04:38:23;1.13;;;1.10;;
15342;SDS011;7771;48.478;8.936;2023-05-10T04:40:50;1.27;;;1.10;;
15342;SDS011;7771;48.478;8.936;2023-05-10T04:43:17;1.83;;;1.00;;
15342;SDS011;7771;48.478;8.936;2023-05-10T04:45:44;2.97;;;1.30;;
15342;SDS011;7771;48.478;8.936;2023-05-10T04:48:12;1.50;;;1.03;;
15342;SDS011;7771;48.478;8.936;2023-05-10T04:50:39;3.93;;;1.27;;
15342;SDS011;7771;48.478;8.936;2023-05-10T04:53:06;2.10;;;1.30;;
15342;SDS011;7771;48.478;8.936;2023-05-10T04:55:33;2.37;;;1.43;;
15342;SDS011;7771;48.478;8.936;2023-05-10T04:57:59;2.63;;;1.30;;
15342;SDS011;7771;48.478;8.936;2023-05-10T05:00:27;1.40;;;1.23;;
15342;SDS011;7771;48.478;8.936;2023-05-10T05:02:55;1.33;;;1.20;;
15342;SDS011;7771;48.478;8.936;2023-05-10T05:05:21;0.93;;;0.90;;
15342;SDS011;7771;48.478;8.936;2023-05-10T05:07:49;1.73;;;1.63;;
15342;SDS011;7771;48.478;8.936;2023-05-10T05:10:17;2.23;;;1.40;;
15342;SDS011;7771;48.478;8.936;2023-05-10T05:12:45;2.20;;;1.30;;
15342;SDS011;7771;48.478;8.936;2023-05-10T05:15:13;2.30;;;0.90;;
15342;SDS011;7771;48.478;8.936;2023-05-10T05:17:39;2.27;;;1.00;;
15342;SDS011;7771;48.478;8.936;2023-05-10T05:20:06;4.40;;;1.27;;
15342;SDS011;7771;48.478;8.936;2023-05-10T05:22:35;3.13;;;1.10;;
15342;SDS011;7771;48.478;8.936;2023-05-10T05:25:01;2.97;;;1.10;;
15342;SDS011;7771;48.478;8.936;2023-05-10T05:27:28;1.17;;;1.07;;
15342;SDS011;7771;48.478;8.936;2023-05-10T05:29:55;2.07;;;1.30;;
15342;SDS011;7771;48.478;8.936;2023-05-10T05:32:22;1.80;;;1.10;;
15342;SDS011;7771;48.478;8.936;2023-05-10T05:34:50;3.77;;;1.37;;
15342;SDS011;7771;48.478;8.936;2023-05-10T05:37:19;3.33;;;1.33;;
15342;SDS011;7771;48.478;8.936;2023-05-10T05:39:46;2.03;;;1.50;;
15342;SDS011;7771;48.478;8.936;2023-05-10T05:42:14;1.70;;;1.30;;
15342;SDS011;7771;48.478;8.936;2023-05-10T05:44:42;1.10;;;1.00;;
15342;SDS011;7771;48.478;8.936;2023-05-10T05:47:10;0.83;;;0.70;;
15342;SDS011;7771;48.478;8.936;2023-05-10T05:49:36;2.20;;;1.00;;
15342;SDS011;7771;48.478;8.936;2023-05-10T05:52:03;2.20;;;1.23;;
15342;SDS011;7771;48.478;8.936;2023-05-10T05:54:31;1.43;;;1.33;;
15342;SDS011;7771;48.478;8.936;2023-05-10T05:56:59;2.60;;;1.47;;
15342;SDS011;7771;48.478;8.936;2023-05-10T05:59:25;2.40;;;2.07;;
15342;SDS011;7771;48.478;8.936;2023-05-10T06:01:53;2.00;;;1.90;;
15342;SDS011;7771;48.478;8.936;2023-05-10T06:04:20;2.80;;;2.10;;
15342;SDS011;7771;48.478;8.936;2023-05-10T06:06:47;2.40;;;2.07;;
15342;SDS011;7771;48.478;8.936;2023-05-10T06:09:15;4.27;;;1.93;;
15342;SDS011;7771;48.478;8.936;2023-05-10T06:11:43;6.70;;;1.53;;
15342;SDS011;7771;48.478;8.936;2023-05-10T06:14:10;3.03;;;1.50;;
15342;SDS011;7771;48.478;8.936;2023-05-10T06:16:36;2.30;;;1.43;;
15342;SDS011;7771;48.478;8.936;2023-05-10T06:19:04;1.40;;;1.30;;
15342;SDS011;7771;48.478;8.936;2023-05-10T06:21:32;1.67;;;1.53;;
15342;SDS011;7771;48.478;8.936;2023-05-10T06:23:58;2.90;;;1.50;;
15342;SDS011;7771;48.478;8.936;2023-05-10T06:26:27;2.43;;;1.50;;
15342;SDS011;7771;48.478;8.936;2023-05-10T06:28:55;2.17;;;1.50;;
15342;SDS011;7771;48.478;8.936;2023-05-10T06:31:22;2.20;;;1.40;;
15342;SDS011;7771;48.478;8.936;2023-05-10T06:33:50;1.57;;;1.40;;
15342;SDS011;7771;48.478;8.936;2023-05-10T06:36:18;2.93;;;1.70;;
15342;SDS011;7771;48.478;8.936;2023-05-10T06:38:45;1.57;;;1.30;;
15342;SDS011;7771;48.478;8.936;2023-05-10T06:41:12;5.00;;;2.00;;
15342;SDS011;7771;48.478;8.936;2023-05-10T06:43:39;1.50;;;1.13;;
15342;SDS011;7771;48.478;8.936;2023-05-10T06:46:07;1.37;;;1.03;;
15342;SDS011;7771;48.478;8.936;2023-05-10T06:48:35;2.97;;;2.13;;
15342;SDS011;7771;48.478;8.936;2023-05-10T06:51:01;1.60;;;1.30;;
15342;SDS011;7771;48.478;8.936;2023-05-10T06:53:29;1.07;;;0.97;;
15342;SDS011;7771;48.478;8.936;2023-05-10T06:55:57;1.17;;;1.07;;
15342;SDS011;7771;48.478;8.936;2023-05-10T06:58:24;1.97;;;1.50;;
15342;SDS011;7771;48.478;8.936;2023-05-10T07:00:52;1.90;;;1.47;;
15342;SDS011;7771;48.478;8.936;2023-05-10T07:03:20;1.83;;;1.47;;
15342;SDS011;7771;48.478;8.936;2023-05-10T07:05:48;2.43;;;1.20;;
15342;SDS011;7771;48.478;8.936;2023-05-10T07:08:15;3.73;;;1.87;;
15342;SDS011;7771;48.478;8.936;2023-05-10T07:10:43;2.00;;;1.60;;
15342;SDS011;7771;48.478;8.936;2023-05-10T07:13:12;1.63;;;1.50;;
15342;SDS011;7771;48.478;8.936;2023-05-10T07:15:39;1.60;;;1.50;;
15342;SDS011;7771;48.478;8.936;2023-05-10T07:18:08;2.80;;;1.40;;
15342;SDS011;7771;48.478;8.936;2023-05-10T07:20:34;2.30;;;1.40;;
15342;SDS011;7771;48.478;8.936;2023-05-10T07:23:02;3.13;;;2.10;;
15342;SDS011;7771;48.478;8.936;2023-05-10T07:25:30;3.23;;;2.77;;
15342;SDS011;7771;48.478;8.936;2023-05-10T07:27:56;1.30;;;1.20;;
15342;SDS011;7771;48.478;8.936;2023-05-10T07:30:24;0.87;;;0.87;;
15342;SDS011;7771;48.478;8.936;2023-05-10T07:32:51;1.10;;;1.00;;
15342;SDS011;7771;48.478;8.936;2023-05-10T07:35:19;0.90;;;0.90;;
15342;SDS011;7771;48.478;8.936;2023-05-10T07:37:46;1.57;;;1.07;;
15342;SDS011;7771;48.478;8.936;2023-05-10T07:40:14;1.97;;;0.90;;
15342;SDS011;7771;48.478;8.936;2023-05-10T07:42:43;1.13;;;0.90;;
15342;SDS011;7771;48.478;8.936;2023-05-10T07:45:09;1.10;;;0.90;;
15342;SDS011;7771;48.478;8.936;2023-05-10T07:47:37;1.60;;;0.90;;
15342;SDS011;7771;48.478;8.936;2023-05-10T07:50:05;2.30;;;1.10;;
15342;SDS011;7771;48.478;8.936;2023-05-10T07:52:34;1.17;;;1.03;;
15342;SDS011;7771;48.478;8.936;2023-05-10T07:55:02;1.55;;;1.02;;
15342;SDS011;7771;48.478;8.936;2023-05-10T07:57:28;0.60;;;0.60;;
15342;SDS011;7771;48.478;8.936;2023-05-10T07:59:55;1.00;;;0.75;;
15342;SDS011;7771;48.478;8.936;2023-05-10T08:02:22;0.93;;;0.80;;
15342;SDS011;7771;48.478;8.936;2023-05-10T08:04:49;5.53;;;1.58;;
15342;SDS011;7771;48.478;8.936;2023-05-10T08:07:16;4.18;;;2.00;;
15342;SDS011;7771;48.478;8.936;2023-05-10T08:09:43;1.08;;;0.70;;
15342;SDS011;7771;48.478;8.936;2023-05-10T08:12:10;0.50;;;0.50;;
15342;SDS011;7771;48.478;8.936;2023-05-10T08:14:38;2.20;;;0.70;;
15342;SDS011;7771;48.478;8.936;2023-05-10T08:17:04;1.20;;;0.95;;
15342;SDS011;7771;48.478;8.936;2023-05-10T08:19:32;1.20;;;0.77;;
15342;SDS011;7771;48.478;8.936;2023-05-10T08:21:59;0.52;;;0.50;;
15342;SDS011;7771;48.478;8.936;2023-05-10T08:24:27;1.12;;;0.70;;
15342;SDS011;7771;48.478;8.936;2023-05-10T08:26:55;0.90;;;0.65;;
15342;SDS011;7771;48.478;8.936;2023-05-10T08:29:22;2.55;;;0.70;;
15342;SDS011;7771;48.478;8.936;2023-05-10T08:31:49;1.50;;;0.60;;
15342;SDS011;7771;48.478;8.936;2023-05-10T08:34:16;1.52;;;0.65;;
15342;SDS011;7771;48.478;8.936;2023-05-10T08:36:45;0.70;;;0.60;;
15342;SDS011;7771;48.478;8.936;2023-05-10T08:39:11;0.77;;;0.70;;
15342;SDS011;7771;48.478;8.936;2023-05-10T08:41:39;2.20;;;0.70;;
15342;SDS011;7771;48.478;8.936;2023-05-10T08:44:05;0.75;;;0.47;;
15342;SDS011;7771;48.478;8.936;2023-05-10T08:46:33;8.25;;;3.80;;
15342;SDS011;7771;48.478;8.936;2023-05-10T08:48:59;2.47;;;0.80;;
15342;SDS011;7771;48.478;8.936;2023-05-10T08:51:27;1.08;;;0.50;;
15342;SDS011;7771;48.478;8.936;2023-05-10T08:53:54;0.37;;;0.37;;
15342;SDS011;7771;48.478;8.936;2023-05-10T08:56:22;0.70;;;0.68;;
15342;SDS011;7771;48.478;8.936;2023-05-10T08:58:48;0.75;;;0.62;;
15342;SDS011;7771;48.478;8.936;2023-05-10T09:01:15;1.12;;;0.62;;
15342;SDS011;7771;48.478;8.936;2023-05-10T09:03:42;1.30;;;1.05;;
15342;SDS011;7771;48.478;8.936;2023-05-10T09:06:10;0.30;;;0.30;;
15342;SDS011;7771;48.478;8.936;2023-05-10T09:08:36;1.65;;;0.77;;
15342;SDS011;7771;48.478;8.936;2023-05-10T09:11:03;0.93;;;0.60;;
15342;SDS011;7771;48.478;8.936;2023-05-10T09:13:30;0.80;;;0.68;;
15342;SDS011;7771;48.478;8.936;2023-05-10T09:15:59;0.57;;;0.55;;
15342;SDS011;7771;48.478;8.936;2023-05-10T09:18:25;0.98;;;0.70;;
15342;SDS011;7771;48.478;8.936;2023-05-10T09:20:54;4.03;;;0.73;;
15342;SDS011;7771;48.478;8.936;2023-05-10T09:23:21;0.77;;;0.30;;
15342;SDS011;7771;48.478;8.936;2023-05-10T09:26:01;1.60;;;0.52;;
15342;SDS011;7771;48.478;8.936;2023-05-10T09:28:15;0.40;;;0.35;;
15342;SDS011;7771;48.478;8.936;2023-05-10T09:30:42;0.88;;;0.68;;
15342;SDS011;7771;48.478;8.936;2023-05-10T09:33:10;1.02;;;0.70;;
15342;SDS011;7771;48.478;8.936;2023-05-10T09:35:38;0.68;;;0.68;;
15342;SDS011;7771;48.478;8.936;2023-05-10T09:38:05;0.70;;;0.70;;
15342;SDS011;7771;48.478;8.936;2023-05-10T09:40:32;0.80;;;0.60;;
15342;SDS011;7771;48.478;8.936;2023-05-10T09:43:00;2.53;;;0.65;;
15342;SDS011;7771;48.478;8.936;2023-05-10T09:45:28;3.22;;;2.65;;
15342;SDS011;7771;48.478;8.936;2023-05-10T09:47:55;9.13;;;2.00;;
15342;SDS011;7771;48.478;8.936;2023-05-10T09:50:22;1.62;;;0.90;;
15342;SDS011;7771;48.478;8.936;2023-05-10T09:52:51;2.85;;;0.70;;
15342;SDS011;7771;48.478;8.936;2023-05-10T09:55:17;1.52;;;0.80;;
15342;SDS011;7771;48.478;8.936;2023-05-10T09:57:44;2.00;;;0.80;;
15342;SDS011;7771;48.478;8.936;2023-05-10T10:00:16;0.70;;;0.60;;
15342;SDS011;7771;48.478;8.936;2023-05-10T10:02:48;1.33;;;0.80;;
15342;SDS011;7771;48.478;8.936;2023-05-10T10:05:15;0.93;;;0.88;;
15342;SDS011;7771;48.478;8.936;2023-05-10T10:07:42;1.75;;;1.12;;
15342;SDS011;7771;48.478;8.936;2023-05-10T10:10:10;1.80;;;0.85;;
15342;SDS011;7771;48.478;8.936;2023-05-10T10:12:38;0.95;;;0.93;;
15342;SDS011;7771;48.478;8.936;2023-05-10T10:15:05;0.80;;;0.80;;
15342;SDS011;7771;48.478;8.936;2023-05-10T10:17:33;2.80;;;2.28;;
15342;SDS011;7771;48.478;8.936;2023-05-10T10:20:02;0.80;;;0.80;;
15342;SDS011;7771;48.478;8.936;2023-05-10T10:22:29;1.23;;;1.00;;
15342;SDS011;7771;48.478;8.936;2023-05-10T10:24:56;1.25;;;1.02;;
15342;SDS011;7771;48.478;8.936;2023-05-10T10:27:32;3.97;;;1.02;;
15342;SDS011;7771;48.478;8.936;2023-05-10T10:30:06;0.93;;;0.68;;
15342;SDS011;7771;48.478;8.936;2023-05-10T10:33:51;1.98;;;1.30;;
15342;SDS011;7771;48.478;8.936;2023-05-10T10:35:41;2.15;;;0.70;;
15342;SDS011;7771;48.478;8.936;2023-05-10T10:38:08;2.05;;;0.80;;
15342;SDS011;7771;48.478;8.936;2023-05-10T10:40:34;3.95;;;1.60;;
15342;SDS011;7771;48.478;8.936;2023-05-10T10:45:40;1.80;;;1.27;;
15342;SDS011;7771;48.478;8.936;2023-05-10T10:50:47;1.92;;;0.50;;
15342;SDS011;7771;48.478;8.936;2023-05-10T10:53:14;1.02;;;0.73;;
15342;SDS011;7771;48.478;8.936;2023-05-10T10:55:46;1.05;;;0.52;;
15342;SDS011;7771;48.478;8.936;2023-05-10T10:58:34;1.92;;;0.98;;
15342;SDS011;7771;48.478;8.936;2023-05-10T11:03:38;3.08;;;0.90;;
15342;SDS011;7771;48.478;8.936;2023-05-10T11:06:06;1.58;;;1.10;;
15342;SDS011;7771;48.478;8.936;2023-05-10T11:08:34;1.25;;;0.80;;
15342;SDS011;7771;48.478;8.936;2023-05-10T11:11:04;1.20;;;0.80;;
15342;SDS011;7771;48.478;8.936;2023-05-10T11:16:12;1.75;;;1.08;;
15342;SDS011;7771;48.478;8.936;2023-05-10T11:18:39;1.42;;;0.70;;
15342;SDS011;7771;48.478;8.936;2023-05-10T11:21:08;0.70;;;0.60;;
15342;SDS011;7771;48.478;8.936;2023-05-10T11:23:55;1.25;;;0.75;;
15342;SDS011;7771;48.478;8.936;2023-05-10T11:26:24;1.27;;;0.80;;
15342;SDS011;7771;48.478;8.936;2023-05-10T11:28:50;2.53;;;0.70;;
15342;SDS011;7771;48.478;8.936;2023-05-10T11:31:18;2.97;;;1.60;;
15342;SDS011;7771;48.478;8.936;2023-05-10T11:33:44;1.20;;;0.80;;
15342;SDS011;7771;48.478;8.936;2023-05-10T11:36:14;0.70;;;0.60;;
15342;SDS011;7771;48.478;8.936;2023-05-10T11:38:43;2.35;;;1.40;;
15342;SDS011;7771;48.478;8.936;2023-05-10T11:41:10;9.68;;;4.37;;
15342;SDS011;7771;48.478;8.936;2023-05-10T11:43:37;6.57;;;2.45;;
15342;SDS011;7771;48.478;8.936;2023-05-10T11:46:06;3.62;;;0.80;;
15342;SDS011;7771;48.478;8.936;2023-05-10T11:48:34;1.23;;;0.60;;
15342;SDS011;7771;48.478;8.936;2023-05-10T11:51:01;1.23;;;0.62;;
15342;SDS011;7771;48.478;8.936;2023-05-10T11:53:30;1.02;;;0.60;;
15342;SDS011;7771;48.478;8.936;2023-05-10T11:56:02;2.42;;;1.05;;
15342;SDS011;7771;48.478;8.936;2023-05-10T11:58:31;2.05;;;1.10;;
15342;SDS011;7771;48.478;8.936;2023-05-10T12:00:57;1.73;;;0.70;;
15342;SDS011;7771;48.478;8.936;2023-05-10T12:03:23;1.83;;;0.70;;
15342;SDS011;7771;48.478;8.936;2023-05-10T12:05:51;1.50;;;0.70;;
15342;SDS011;7771;48.478;8.936;2023-05-10T12:08:21;3.12;;;0.93;;
15342;SDS011;7771;48.478;8.936;2023-05-10T12:10:47;2.10;;;0.82;;
15342;SDS011;7771;48.478;8.936;2023-05-10T12:13:14;2.45;;;1.23;;
15342;SDS011;7771;48.478;8.936;2023-05-10T12:15:41;2.35;;;1.08;;
15342;SDS011;7771;48.478;8.936;2023-05-10T12:18:10;2.75;;;1.40;;
15342;SDS011;7771;48.478;8.936;2023-05-10T12:20:36;2.20;;;1.20;;
15342;SDS011;7771;48.478;8.936;2023-05-10T12:23:03;2.03;;;0.80;;
15342;SDS011;7771;48.478;8.936;2023-05-10T12:25:31;1.92;;;1.00;;
15342;SDS011;7771;48.478;8.936;2023-05-10T12:27:59;2.47;;;1.50;;
15342;SDS011;7771;48.478;8.936;2023-05-10T12:30:27;1.83;;;1.40;;
15342;SDS011;7771;48.478;8.936;2023-05-10T12:32:54;2.65;;;1.10;;
15342;SDS011;7771;48.478;8.936;2023-05-10T12:35:22;1.25;;;1.12;;
15342;SDS011;7771;48.478;8.936;2023-05-10T12:37:48;2.92;;;1.10;;
15342;SDS011;7771;48.478;8.936;2023-05-10T12:40:15;3.58;;;1.50;;
15342;SDS011;7771;48.478;8.936;2023-05-10T12:42:43;5.45;;;1.20;;
15342;SDS011;7771;48.478;8.936;2023-05-10T12:45:12;1.65;;;1.27;;
15342;SDS011;7771;48.478;8.936;2023-05-10T12:47:40;1.87;;;1.10;;
15342;SDS011;7771;48.478;8.936;2023-05-10T12:50:07;2.30;;;1.00;;
15342;SDS011;7771;48.478;8.936;2023-05-10T12:52:34;1.77;;;1.20;;
15342;SDS011;7771;48.478;8.936;2023-05-10T12:55:02;3.47;;;1.40;;
15342;SDS011;7771;48.478;8.936;2023-05-10T12:57:29;2.00;;;1.55;;
15342;SDS011;7771;48.478;8.936;2023-05-10T12:59:57;4.20;;;1.23;;
15342;SDS011;7771;48.478;8.936;2023-05-10T13:02:25;3.03;;;1.37;;
15342;SDS011;7771;48.478;8.936;2023-05-10T13:04:53;1.98;;;1.23;;
15342;SDS011;7771;48.478;8.936;2023-05-10T13:07:20;2.87;;;1.08;;
15342;SDS011;7771;48.478;8.936;2023-05-10T13:09:46;2.50;;;1.00;;
15342;SDS011;7771;48.478;8.936;2023-05-10T13:12:13;1.83;;;0.70;;
15342;SDS011;7771;48.478;8.936;2023-05-10T13:14:40;5.30;;;0.98;;
15342;SDS011;7771;48.478;8.936;2023-05-10T13:17:08;2.55;;;1.00;;
15342;SDS011;7771;48.478;8.936;2023-05-10T13:19:34;3.87;;;0.93;;
15342;SDS011;7771;48.478;8.936;2023-05-10T13:22:02;3.47;;;0.70;;
15342;SDS011;7771;48.478;8.936;2023-05-10T13:24:28;3.35;;;0.82;;
15342;SDS011;7771;48.478;8.936;2023-05-10T13:26:56;5.15;;;1.05;;
15342;SDS011;7771;48.478;8.936;2023-05-10T13:29:24;2.50;;;1.02;;
15342;SDS011;7771;48.478;8.936;2023-05-10T13:31:50;1.30;;;1.00;;
15342;SDS011;7771;48.478;8.936;2023-05-10T13:34:18;2.15;;;0.80;;
15342;SDS011;7771;48.478;8.936;2023-05-10T13:36:45;2.20;;;0.80;;
15342;SDS011;7771;48.478;8.936;2023-05-10T13:39:13;1.33;;;0.70;;
15342;SDS011;7771;48.478;8.936;2023-05-10T13:41:39;3.50;;;0.77;;
15342;SDS011;7771;48.478;8.936;2023-05-10T13:44:06;1.80;;;0.93;;
15342;SDS011;7771;48.478;8.936;2023-05-10T13:46:33;3.30;;;0.80;;
15342;SDS011;7771;48.478;8.936;2023-05-10T13:49:00;1.27;;;0.77;;
15342;SDS011;7771;48.478;8.936;2023-05-10T13:51:27;1.33;;;0.90;;
15342;SDS011;7771;48.478;8.936;2023-05-10T13:53:53;1.77;;;0.75;;
15342;SDS011;7771;48.478;8.936;2023-05-10T13:56:22;1.55;;;0.80;;
15342;SDS011;7771;48.478;8.936;2023-05-10T13:58:48;3.03;;;1.05;;
15342;SDS011;7771;48.478;8.936;2023-05-10T14:01:15;1.15;;;0.85;;
15342;SDS011;7771;48.478;8.936;2023-05-10T14:03:43;1.60;;;0.80;;
15342;SDS011;7771;48.478;8.936;2023-05-10T14:06:10;0.98;;;0.77;;
15342;SDS011;7771;48.478;8.936;2023-05-10T14:08:36;1.65;;;0.70;;
15342;SDS011;7771;48.478;8.936;2023-05-10T14:11:04;1.33;;;0.70;;
15342;SDS011;7771;48.478;8.936;2023-05-10T14:13:31;2.70;;;1.12;;
15342;SDS011;7771;48.478;8.936;2023-05-10T14:15:58;3.03;;;0.90;;
15342;SDS011;7771;48.478;8.936;2023-05-10T14:18:24;1.98;;;0.80;;
15342;SDS011;7771;48.478;8.936;2023-05-10T14:20:53;0.98;;;0.88;;
15342;SDS011;7771;48.478;8.936;2023-05-10T14:23:19;0.93;;;0.82;;
15342;SDS011;7771;48.478;8.936;2023-05-10T14:25:46;2.67;;;0.80;;
15342;SDS011;7771;48.478;8.936;2023-05-10T14:28:13;1.37;;;0.90;;
15342;SDS011;7771;48.478;8.936;2023-05-10T14:30:39;1.33;;;0.90;;
15342;SDS011;7771;48.478;8.936;2023-05-10T14:33:07;1.98;;;0.85;;
15342;SDS011;7771;48.478;8.936;2023-05-10T14:35:35;1.02;;;0.90;;
15342;SDS011;7771;48.478;8.936;2023-05-10T14:38:02;2.58;;;1.00;;
15342;SDS011;7771;48.478;8.936;2023-05-10T14:40:29;2.47;;;1.10;;
15342;SDS011;7771;48.478;8.936;2023-05-10T14:42:56;4.10;;;0.88;;
15342;SDS011;7771;48.478;8.936;2023-05-10T14:45:24;1.42;;;0.90;;
15342;SDS011;7771;48.478;8.936;2023-05-10T14:47:52;4.53;;;1.12;;
15342;SDS011;7771;48.478;8.936;2023-05-10T14:50:20;1.42;;;1.00;;
15342;SDS011;7771;48.478;8.936;2023-05-10T14:52:47;1.83;;;1.00;;
15342;SDS011;7771;48.478;8.936;2023-05-10T14:55:14;1.35;;;0.80;;
15342;SDS011;7771;48.478;8.936;2023-05-10T14:57:40;2.28;;;1.23;;
15342;SDS011;7771;48.478;8.936;2023-05-10T15:00:09;3.30;;;0.73;;
15342;SDS011;7771;48.478;8.936;2023-05-10T15:02:37;1.15;;;0.75;;
15342;SDS011;7771;48.478;8.936;2023-05-10T15:05:05;1.70;;;1.15;;
15342;SDS011;7771;48.478;8.936;2023-05-10T15:07:32;0.75;;;0.62;;
15342;SDS011;7771;48.478;8.936;2023-05-10T15:09:58;2.65;;;0.68;;
15342;SDS011;7771;48.478;8.936;2023-05-10T15:12:26;1.33;;;0.50;;
15342;SDS011;7771;48.478;8.936;2023-05-10T15:14:52;1.80;;;0.82;;
15342;SDS011;7771;48.478;8.936;2023-05-10T15:17:20;1.65;;;0.60;;
15342;SDS011;7771;48.478;8.936;2023-05-10T15:19:47;1.70;;;0.70;;